Latest Weather Observations for Lake Julius

IDQ60801

Issued at 5:02 pm EST Saturday 20 December 2014 (issued every 30 minutes, with the page automatically refreshed every 10 minutes)

About weather observations | Map of weather stations | Latest weather observations for QLD | Other Formats
Station Details ID: 029181 Name: LAKE JULIUS AWS Lat: -20.12 Lon: 139.73 Height: 237.0 m
Data from the previous 72 hours. | See also: Recent months for locations in Queensland
Date/Time
EST
Temp
°C
App
Temp
°C
Dew
Point
Rel
Hum
%
Delta-T
°C
Wind Press
QNH
hPa
Press
MSL
hPa
Rain
since 9 am
mm
Dir
 
Spd
km/h
Gust
km/h
Spd
kts
Gust
kts
20/05:00pm 38.5 36.8 10.0 18 16.9 E 9 19 5 10 - - 0.0
20/04:30pm 37.8 37.0 11.0 20 16.1 ESE 6 17 3 9 - - 0.0
20/04:00pm 39.8 37.3 11.0 18 17.4 SSE 15 26 8 14 - - 0.0
20/03:30pm 39.7 38.3 10.9 18 17.4 S 9 17 5 9 - - 0.0
20/03:00pm 38.8 37.2 10.2 18 17.0 SW 9 17 5 9 - - 0.0
20/02:30pm 38.7 36.4 11.7 20 16.4 S 15 24 8 13 - - 0.0
20/02:00pm 38.3 36.9 12.1 21 16.0 SSE 11 24 6 13 - - 0.0
20/01:30pm 38.7 37.4 13.8 22 15.6 ESE 13 22 7 12 - - 0.0
20/01:00pm 38.7 39.0 15.1 24 15.0 ENE 7 17 4 9 - - 0.0
20/12:30pm 37.6 36.5 14.2 25 14.7 ESE 13 28 7 15 - - 0.0
20/12:00pm 36.7 35.6 15.2 27 13.6 E 15 26 8 14 - - 0.0
20/11:30am 35.1 33.7 14.4 29 12.9 E 15 35 8 19 - - 0.0
20/11:00am 36.0 34.9 15.2 29 13.1 E 15 35 8 19 - - 0.0
20/10:30am 34.5 32.5 15.4 32 12.0 ESE 20 33 11 18 - - 0.0
20/10:00am 34.6 33.5 16.4 33 11.6 ESE 17 28 9 15 - - 0.0
20/09:30am 33.7 32.9 16.1 34 11.2 SE 15 24 8 13 - - 0.0
20/09:00am 33.3 33.3 16.2 36 10.9 E 11 24 6 13 - - 0.0
20/08:30am 32.6 32.1 16.0 36 10.5 E 13 24 7 13 - - 0.0
20/08:00am 31.3 31.4 14.4 35 10.4 ESE 7 15 4 8 - - 0.0
20/07:30am 30.8 30.7 14.0 36 10.2 ESE 7 13 4 7 - - 0.0
20/07:00am 30.0 30.2 12.0 33 10.6 SSW 2 7 1 4 - - 0.0
20/06:30am 30.0 29.3 10.0 29 11.4 SSE 4 6 2 3 - - 0.0
20/06:00am 29.9 28.1 9.4 28 11.6 S 9 15 5 8 - - 0.0
20/05:30am 30.4 28.0 8.7 26 12.2 S 11 15 6 8 - - 0.0
20/05:00am 30.9 28.5 8.6 25 12.5 S 11 19 6 10 - - 0.0
20/04:30am 30.9 28.3 9.2 26 12.3 S 13 19 7 10 - - 0.0
20/04:00am 30.7 28.6 9.6 27 12.0 S 11 20 6 11 - - 0.0
20/03:30am 30.1 29.3 11.6 32 10.8 SSW 7 15 4 8 - - 0.0
20/03:00am 30.1 29.5 13.4 36 10.1 SSW 9 11 5 6 - - 0.0
20/02:30am 29.9 30.6 16.0 43 8.7 SSW 7 9 4 5 - - 0.0
20/02:00am 31.8 30.9 12.6 31 11.5 SSE 9 13 5 7 - - 0.0
20/01:30am 31.6 31.6 14.3 35 10.6 S 7 11 4 6 - - 0.0
20/01:00am 31.2 32.6 16.4 41 9.4 SSW 4 6 2 3 - - 0.0
20/12:30am 31.9 33.2 16.2 38 9.9 S 4 6 2 3 - - 0.0
20/12:00am 32.8 33.4 15.8 36 10.7 S 7 11 4 6 - - 0.0
 
Date/Time
EST
Temp
°C
App
Temp
°C
Dew
Point
Rel
Hum
%
Delta-T
°C
Wind Press
QNH
hPa
Press
MSL
hPa
Rain
since 9 am
mm
Dir
 
Spd
km/h
Gust
km/h
Spd
kts
Gust
kts
19/11:30pm 33.0 33.8 15.9 35 10.8 ESE 6 9 3 5 - - 0.0
19/11:00pm 33.3 34.2 16.2 36 10.9 ESE 6 11 3 6 - - 0.0
19/10:30pm 33.4 34.8 16.3 36 10.9 SSE 4 9 2 5 - - 0.0
19/10:00pm 34.1 34.8 16.0 34 11.5 SSE 7 15 4 8 - - 0.0
19/09:30pm 34.5 34.2 15.4 32 12.0 SSE 11 19 6 10 - - 0.0
19/09:00pm 34.8 34.2 15.7 32 12.1 SSE 13 20 7 11 - - 0.0
19/08:30pm 35.0 35.4 15.3 30 12.4 SSE 7 15 4 8 - - 0.0
19/08:00pm 35.2 35.5 15.0 30 12.7 ESE 7 13 4 7 - - 0.0
19/07:30pm 35.4 36.0 15.2 30 12.7 E 6 9 3 5 - - 0.0
19/07:00pm 35.8 35.3 15.0 29 13.1 ESE 11 19 6 10 - - 0.0
19/06:30pm 36.3 35.8 14.9 28 13.5 NE 11 19 6 10 - - 0.0
19/06:00pm 37.6 37.7 15.4 27 14.1 SE 9 15 5 8 - - 0.0
19/05:30pm 38.3 38.4 15.4 25 14.6 S 9 13 5 7 - - 0.0
19/05:00pm 37.7 38.0 14.9 26 14.4 SE 7 15 4 8 - - 0.0
19/04:30pm 38.2 39.2 15.3 25 14.6 SW 4 7 2 4 - - 0.0
19/04:00pm 37.4 37.4 15.2 26 14.1 SSW 9 15 5 8 - - 0.0
19/03:30pm 37.3 37.1 14.6 26 14.3 SSE 9 20 5 11 - - 0.0
19/03:00pm 37.2 37.9 15.6 27 13.8 NW 6 9 3 5 - - 0.0
19/02:30pm 36.5 37.0 15.6 29 13.3 SSW 7 15 4 8 - - 0.0
19/02:00pm 36.3 36.4 15.4 28 13.3 SSW 9 19 5 10 - - 0.0
19/01:30pm 36.3 36.9 15.9 29 13.0 WSW 7 17 4 9 - - 0.0
19/01:00pm 35.5 35.7 15.8 31 12.5 SSW 9 15 5 8 - - 0.0
19/12:30pm 35.1 35.9 15.9 31 12.2 SSW 6 13 3 7 - - 0.0
19/12:00pm 34.0 34.3 15.9 33 11.5 SSW 9 15 5 8 - - 0.0
19/11:30am 33.9 34.3 16.3 35 11.2 SSW 9 19 5 10 - - 0.0
19/11:00am 32.4 32.6 15.8 36 10.5 S 9 19 5 10 - - 0.0
19/10:30am 32.6 33.4 17.2 39 9.9 SSW 9 17 5 9 - - 0.0
19/10:00am 31.5 32.7 17.4 43 9.1 S 7 15 4 8 - - 0.0
19/09:30am 30.5 31.6 17.2 44 8.5 S 7 17 4 9 - - 0.0
19/09:00am 29.9 31.0 18.0 48 7.7 S 9 13 5 7 - - 0.2
19/08:30am 28.7 29.8 17.9 52 6.9 SSW 9 13 5 7 - - 0.2
19/08:00am 27.7 29.0 17.5 53 6.5 SSW 7 11 4 6 - - 0.2
19/07:30am 27.3 28.7 17.8 56 6.1 S 7 9 4 5 - - 0.2
19/07:00am 26.2 28.4 18.3 61 5.1 S 4 6 2 3 - - 0.2
19/06:30am 24.7 27.8 18.6 69 3.9 CALM 0 0 0 0 - - 0.2
19/06:00am 24.2 27.3 18.6 71 3.6 CALM 0 0 0 0 - - 0.2
19/05:30am 24.1 27.0 18.1 69 3.8 CALM 0 0 0 0 - - 0.2
19/05:00am 24.5 27.3 18.0 67 4.1 CALM 0 2 0 1 - - 0.2
19/04:30am 24.8 26.9 18.0 66 4.3 NNE 4 6 2 3 - - 0.2
19/04:00am 25.0 27.7 17.7 64 4.6 CALM 0 0 0 0 - - 0.2
19/03:30am 25.3 27.4 18.0 64 4.6 S 4 6 2 3 - - 0.2
19/03:00am 25.4 27.4 17.8 62 4.8 ESE 4 6 2 3 - - 0.2
19/02:30am 25.6 27.3 18.0 63 4.8 ESE 6 11 3 6 - - 0.2
19/02:00am 25.8 27.3 18.0 62 5.0 E 7 17 4 9 - - 0.2
19/01:30am 26.1 27.1 17.7 60 5.3 E 9 19 5 10 - - 0.2
19/01:00am 26.5 27.1 17.6 58 5.6 ESE 11 22 6 12 - - 0.2
19/12:30am 26.9 26.6 18.2 59 5.6 E 17 26 9 14 - - 0.2
19/12:00am 27.2 27.1 17.9 56 5.9 E 15 24 8 13 - - 0.2
 
Date/Time
EST
Temp
°C
App
Temp
°C
Dew
Point
Rel
Hum
%
Delta-T
°C
Wind Press
QNH
hPa
Press
MSL
hPa
Rain
since 9 am
mm
Dir
 
Spd
km/h
Gust
km/h
Spd
kts
Gust
kts
18/11:30pm 27.9 28.2 18.0 55 6.3 E 13 24 7 13 - - 0.2
18/11:00pm 28.6 29.5 17.5 51 7.1 E 9 17 5 9 - - 0.2
18/10:30pm 29.2 31.1 17.7 50 7.4 SE 4 9 2 5 - - 0.2
18/10:00pm 29.1 31.0 17.6 50 7.4 ESE 4 7 2 4 - - 0.2
18/09:30pm 29.3 30.9 17.8 50 7.4 S 6 15 3 8 - - 0.2
18/09:00pm 29.3 30.8 17.5 49 7.5 E 6 11 3 6 - - 0.2
18/08:30pm 29.9 30.1 17.7 48 7.8 E 13 20 7 11 - - 0.2
18/08:00pm 30.6 31.4 17.3 45 8.5 ESE 9 19 5 10 - - 0.2
18/07:30pm 31.1 31.6 17.4 44 8.8 SSE 11 19 6 10 - - 0.2
18/07:00pm 31.7 31.9 17.6 43 9.1 SSE 13 17 7 9 - - 0.2
18/06:30pm 32.1 31.7 17.2 41 9.6 S 15 26 8 14 - - 0.2
18/06:00pm 32.4 31.4 17.5 41 9.6 SSE 19 26 10 14 - - 0.2
18/05:30pm 32.8 31.2 17.4 39 9.9 S 22 35 12 19 - - 0.2
18/05:00pm 33.8 32.4 17.9 38 10.4 S 22 39 12 21 - - 0.2
18/04:30pm 33.6 32.1 18.5 40 9.9 SSW 24 37 13 20 - - 0.2
18/04:00pm 33.5 31.2 18.4 40 9.9 S 28 39 15 21 - - 0.2
18/03:37pm 34.4 32.2 18.8 39 10.3 S 28 48 15 26 - - 0.2
18/03:30pm 34.1 32.1 18.2 39 10.4 S 26 37 14 20 - - 0.2
18/03:00pm 34.6 31.8 19.4 40 10.1 S 33 48 18 26 - - 0.2
18/02:30pm 33.2 31.8 19.7 45 9.0 S 26 39 14 21 - - 0.2
18/02:08pm 32.9 31.0 20.1 47 8.6 SSW 30 48 16 26 - - 0.2
18/02:00pm 32.5 29.8 19.7 46 8.5 SSW 33 48 18 26 - - 0.2
18/01:30pm 32.3 31.3 20.5 49 7.9 SSW 26 46 14 25 - - 0.0
18/01:00pm 29.6 28.9 21.8 63 5.3 SSW 28 48 15 26 - - 0.0
18/12:30pm 29.7 28.4 21.4 61 5.6 SSW 30 52 16 28 - - 0.0
18/12:12pm 30.9 29.5 20.5 54 7.0 SSW 28 48 15 26 - - 0.0
18/12:00pm 31.7 31.4 20.3 50 7.6 SSW 22 50 12 27 - - 0.0
18/11:48am 32.5 31.1 18.7 44 9.1 SSW 24 56 13 30 - - 0.0
18/11:30am 37.4 37.0 15.2 26 14.1 W 11 20 6 11 - - 0.0
18/11:00am 38.5 38.5 16.2 27 14.4 NW 11 20 6 11 - - 0.0
18/10:30am 36.6 36.4 15.7 29 13.3 WNW 11 20 6 11 - - 0.0
18/10:00am 37.1 37.9 18.1 32 12.5 N 11 17 6 9 - - 0.0
18/09:30am 35.0 36.0 18.6 38 10.8 N 11 20 6 11 - - 0.0
18/09:00am 33.8 35.2 18.7 40 9.9 N 9 17 5 9 - - 0.0
18/08:30am 31.9 33.9 19.2 47 8.4 NNW 7 13 4 7 - - 0.0
18/08:00am 32.4 35.1 20.3 48 8.1 NNW 6 9 3 5 - - 0.0
18/07:30am 31.3 35.8 21.5 56 6.7 CALM 0 0 0 0 - - 0.0
18/07:00am 30.9 35.1 21.7 58 6.3 NNE 2 2 1 1 - - 0.0
18/06:30am 29.8 33.4 21.2 60 5.8 NNE 4 6 2 3 - - 0.0
18/06:00am 30.0 33.5 21.1 59 6.0 N 4 6 2 3 - - 0.0
18/05:30am 30.3 34.3 21.4 59 6.0 W 2 4 1 2 - - 0.0
18/05:00am 30.6 33.9 21.4 58 6.2 N 6 9 3 5 - - 0.0
18/04:30am 30.7 33.8 21.5 58 6.2 N 7 11 4 6 - - 0.0
18/04:00am 30.9 34.7 21.7 58 6.3 NNW 4 6 2 3 - - 0.0
18/03:30am 31.2 34.7 21.9 57 6.3 NNW 6 11 3 6 - - 0.0
18/03:00am 31.1 35.1 22.1 58 6.2 N 4 6 2 3 - - 0.0
18/02:30am 31.4 35.3 21.8 56 6.5 NNE 4 6 2 3 - - 0.0
18/02:00am 31.9 34.9 22.0 55 6.8 N 9 17 5 9 - - 0.0
18/01:30am 32.0 35.5 22.1 55 6.8 N 7 11 4 6 - - 0.0
18/01:00am 32.1 35.4 21.9 54 7.0 N 7 11 4 6 - - 0.0
18/12:30am 32.3 34.5 21.8 54 7.2 N 13 20 7 11 - - 0.0
18/12:00am 32.4 35.6 21.6 53 7.4 N 7 11 4 6 - - 0.0
 
Date/Time
EST
Temp
°C
App
Temp
°C
Dew
Point
Rel
Hum
%
Delta-T
°C
Wind Press
QNH
hPa
Press
MSL
hPa
Rain
since 9 am
mm
Dir
 
Spd
km/h
Gust
km/h
Spd
kts
Gust
kts
17/11:30pm 32.8 34.7 21.3 50 7.8 N 13 19 7 10 - - 0.0
17/11:00pm 32.8 34.6 20.3 47 8.4 N 11 17 6 9 - - 0.0
17/10:30pm 33.3 33.8 20.1 45 8.8 N 17 26 9 14 - - 0.0
17/10:00pm 33.6 34.3 19.7 44 9.3 N 15 22 8 12 - - 0.0
17/09:30pm 34.1 34.5 19.0 41 10.0 NNE 15 24 8 13 - - 0.0
17/09:00pm 35.8 35.7 17.9 34 11.7 N 15 24 8 13 - - 0.0
17/08:30pm 36.4 35.4 17.5 32 12.3 N 19 30 10 16 - - 0.0
17/08:00pm 37.1 35.9 17.1 30 13.0 N 19 30 10 16 - - 0.0
17/07:30pm 37.6 37.3 15.4 27 14.1 NNE 11 17 6 9 - - 0.0
17/07:00pm 38.2 37.6 14.7 24 14.9 NNE 11 19 6 10 - - 0.0
17/06:30pm 38.6 37.9 14.4 24 15.3 NNE 11 17 6 9 - - 0.0
17/06:00pm 39.8 40.1 13.4 21 16.5 W 4 7 2 4 - - 0.0
17/05:30pm 40.2 40.0 13.7 21 16.6 W 7 13 4 7 - - 0.0

Other Formats:

Comma delimited format used in spreadsheet applications
http://www.bom.gov.au/fwo/IDQ60801/IDQ60801.94348.axf

JavaScript Object Notation format (JSON) in row-major order
http://www.bom.gov.au/fwo/IDQ60801/IDQ60801.94348.json